createdAt,value
2023-03-06T00:00:48.921Z,1.40
2023-03-06T00:03:50.788Z,1.40
2023-03-06T00:06:52.895Z,1.40
2023-03-06T00:09:54.709Z,1.40
2023-03-06T00:12:59.902Z,1.30
2023-03-06T00:16:02.048Z,1.30
2023-03-06T00:19:03.873Z,1.20
2023-03-06T00:22:05.829Z,1.20
2023-03-06T00:25:09.094Z,1.10
2023-03-06T00:28:12.406Z,1.00
2023-03-06T00:31:14.466Z,1.00
2023-03-06T00:34:16.310Z,0.90
2023-03-06T00:37:18.410Z,0.90
2023-03-06T00:40:21.629Z,0.80
2023-03-06T00:43:23.735Z,0.80
2023-03-06T00:46:25.969Z,0.80
2023-03-06T00:49:27.787Z,0.80
2023-03-06T00:52:29.999Z,0.80
2023-03-06T00:55:33.518Z,0.80
2023-03-06T00:58:35.973Z,0.80
2023-03-06T01:01:37.895Z,0.80
2023-03-06T01:04:40.072Z,0.80
2023-03-06T01:07:42.184Z,0.80
2023-03-06T01:10:44.964Z,0.80
2023-03-06T01:13:46.955Z,0.60
2023-03-06T01:16:49.186Z,0.70
2023-03-06T01:19:51.049Z,0.70
2023-03-06T01:22:54.636Z,0.60
2023-03-06T01:25:56.677Z,0.60
2023-03-06T01:28:58.648Z,0.50
2023-03-06T01:32:00.639Z,0.50
2023-03-06T01:35:04.288Z,0.40
2023-03-06T01:38:06.375Z,0.30
2023-03-06T01:41:08.167Z,0.20
2023-03-06T01:44:13.901Z,0.20
2023-03-06T01:47:15.647Z,0.20
2023-03-06T01:50:17.694Z,0.10
2023-03-06T01:53:20.463Z,0.10
2023-03-06T01:56:23.312Z,0.20
2023-03-06T01:59:27.107Z,0.20
2023-03-06T02:02:29.492Z,0.30
2023-03-06T02:05:31.641Z,0.30
2023-03-06T02:08:34.339Z,0.30
2023-03-06T02:11:36.125Z,0.20
2023-03-06T02:14:39.753Z,0.40
2023-03-06T02:17:44.553Z,0.40
2023-03-06T02:20:54.385Z,0.40
2023-03-06T02:24:13.579Z,0.40
2023-03-06T02:27:17.507Z,0.40
2023-03-06T02:30:19.913Z,0.50
2023-03-06T02:33:25.660Z,0.50
2023-03-06T02:36:27.750Z,0.50
2023-03-06T02:39:34.116Z,0.50
2023-03-06T02:42:36.192Z,0.50
2023-03-06T02:45:44.425Z,0.50
2023-03-06T02:48:46.438Z,0.50
2023-03-06T02:51:48.199Z,0.50
2023-03-06T02:54:50.003Z,0.50
2023-03-06T02:57:51.918Z,0.50
2023-03-06T03:00:53.732Z,0.50
2023-03-06T03:03:55.705Z,0.50
2023-03-06T03:06:57.478Z,0.50
2023-03-06T03:09:59.313Z,0.50
2023-03-06T03:13:01.147Z,0.40
2023-03-06T03:16:06.186Z,0.50
2023-03-06T03:19:08.218Z,0.50
2023-03-06T03:22:09.980Z,0.50
2023-03-06T03:25:11.911Z,0.50
2023-03-06T03:28:14.004Z,0.50
2023-03-06T03:31:16.058Z,0.50
2023-03-06T03:34:19.112Z,0.50
2023-03-06T03:37:21.061Z,0.50
2023-03-06T03:40:22.844Z,0.50
2023-03-06T03:43:27.291Z,0.60
2023-03-06T03:46:29.275Z,0.60
2023-03-06T03:49:31.394Z,0.60
2023-03-06T03:52:33.168Z,0.60
2023-03-06T03:55:35.080Z,0.60
2023-03-06T03:58:37.311Z,0.60
2023-03-06T04:01:39.903Z,0.60
2023-03-06T04:04:41.988Z,0.70
2023-03-06T04:07:44.548Z,0.70
2023-03-06T04:10:46.350Z,0.70
2023-03-06T04:13:48.195Z,0.70
2023-03-06T04:16:50.550Z,0.70
2023-03-06T04:19:52.502Z,0.70
2023-03-06T04:22:54.256Z,0.70
2023-03-06T04:25:56.094Z,0.80
2023-03-06T04:28:58.547Z,0.80
2023-03-06T04:32:00.424Z,0.80
2023-03-06T04:35:02.433Z,0.80
2023-03-06T04:38:05.065Z,0.80
2023-03-06T04:41:06.842Z,0.80
2023-03-06T04:44:09.070Z,0.80
2023-03-06T04:47:11.905Z,0.80
2023-03-06T04:50:13.933Z,0.80
2023-03-06T04:53:16.996Z,0.80
2023-03-06T04:56:18.960Z,0.80
2023-03-06T04:59:20.996Z,0.80
2023-03-06T05:02:24.869Z,0.80
2023-03-06T05:05:26.961Z,0.80
2023-03-06T05:08:29.228Z,0.80
2023-03-06T05:11:31.292Z,0.70
2023-03-06T05:14:33.086Z,0.70
2023-03-06T05:17:35.128Z,0.60
2023-03-06T05:20:37.301Z,0.70
2023-03-06T05:23:40.316Z,0.70
2023-03-06T05:26:42.741Z,0.70
2023-03-06T05:29:44.771Z,0.70
2023-03-06T05:32:46.545Z,0.70
2023-03-06T05:35:48.932Z,0.70
2023-03-06T05:38:50.736Z,0.70
2023-03-06T05:41:52.967Z,0.70
2023-03-06T05:44:54.743Z,0.70
2023-03-06T05:47:56.576Z,0.70
2023-03-06T05:50:59.849Z,0.80
2023-03-06T05:54:01.929Z,0.70
2023-03-06T05:57:05.095Z,0.70
2023-03-06T06:00:08.291Z,0.70
2023-03-06T06:03:10.099Z,0.70
2023-03-06T06:06:14.241Z,0.70
2023-03-06T06:09:16.058Z,0.70
2023-03-06T06:12:17.996Z,0.70
2023-03-06T06:15:19.853Z,0.70
2023-03-06T06:18:21.675Z,0.70
2023-03-06T06:21:23.528Z,0.70
2023-03-06T06:24:26.906Z,0.70
2023-03-06T06:27:28.752Z,0.70
2023-03-06T06:30:31.337Z,0.70
2023-03-06T06:33:33.119Z,0.70
2023-03-06T06:36:35.163Z,0.70
2023-03-06T06:39:37.065Z,0.80
2023-03-06T06:42:40.266Z,0.70
2023-03-06T06:45:44.442Z,0.80
2023-03-06T06:48:49.486Z,0.80
2023-03-06T06:51:51.291Z,0.80
2023-03-06T06:54:53.552Z,0.80
2023-03-06T06:57:55.476Z,0.80
2023-03-06T07:00:57.192Z,0.80
2023-03-06T07:03:59.046Z,0.70
2023-03-06T07:07:01.653Z,0.80
2023-03-06T07:10:11.721Z,0.80
2023-03-06T07:13:13.468Z,0.80
2023-03-06T07:16:17.416Z,0.80
2023-03-06T07:19:19.317Z,0.80
2023-03-06T07:22:21.199Z,0.90
2023-03-06T07:25:23.448Z,0.90
2023-03-06T07:28:25.309Z,0.90
2023-03-06T07:31:27.637Z,0.90
2023-03-06T07:34:29.803Z,1.00
2023-03-06T07:37:31.644Z,1.00
2023-03-06T07:40:33.695Z,1.00
2023-03-06T07:43:35.638Z,1.00
2023-03-06T07:46:37.602Z,1.10
2023-03-06T07:49:39.643Z,1.10
2023-03-06T07:52:41.497Z,1.20
2023-03-06T07:55:43.340Z,1.20
2023-03-06T07:58:46.668Z,1.30
2023-03-06T08:01:48.581Z,1.30
2023-03-06T08:04:54.546Z,1.30
2023-03-06T08:07:56.450Z,1.50
2023-03-06T08:10:58.501Z,1.40
2023-03-06T08:14:00.492Z,1.40
2023-03-06T08:17:02.436Z,1.40
2023-03-06T08:20:05.884Z,1.40
2023-03-06T08:23:07.752Z,1.40
2023-03-06T08:26:13.574Z,1.40
2023-03-06T08:29:15.540Z,1.40
2023-03-06T08:32:17.438Z,1.40
2023-03-06T08:35:19.346Z,1.40
2023-03-06T08:38:21.192Z,1.40
2023-03-06T08:41:23.539Z,1.40
2023-03-06T08:44:25.384Z,1.40
2023-03-06T08:47:27.140Z,1.50
2023-03-06T08:50:28.948Z,1.50
2023-03-06T08:53:42.636Z,1.50
2023-03-06T08:56:45.244Z,1.60
2023-03-06T08:59:46.976Z,1.60
2023-03-06T09:02:48.747Z,1.70
2023-03-06T09:05:51.384Z,1.70
2023-03-06T09:08:54.191Z,1.80
2023-03-06T09:11:56.353Z,1.80
2023-03-06T09:14:58.134Z,1.90
2023-03-06T09:17:59.892Z,2.00
2023-03-06T09:21:02.276Z,2.00
2023-03-06T09:24:07.608Z,2.10
2023-03-06T09:27:09.560Z,2.10
2023-03-06T09:30:12.491Z,2.10
2023-03-06T09:33:14.813Z,2.20
2023-03-06T09:36:19.803Z,2.20
2023-03-06T09:39:21.547Z,2.30
2023-03-06T09:42:24.258Z,2.40
2023-03-06T09:45:25.997Z,2.50
2023-03-06T09:48:56.167Z,2.60
2023-03-06T09:52:03.174Z,2.70
2023-03-06T09:55:05.059Z,2.90
2023-03-06T09:58:27.824Z,3.10
2023-03-06T10:01:35.022Z,3.20
2023-03-06T10:04:43.324Z,3.30
2023-03-06T10:08:12.137Z,3.40
2023-03-06T10:11:19.673Z,3.40
2023-03-06T10:14:43.902Z,3.50
2023-03-06T10:17:46.021Z,3.40
2023-03-06T10:20:56.374Z,3.40
2023-03-06T10:24:04.074Z,3.40
2023-03-06T10:27:33.506Z,3.30
2023-03-06T10:30:49.521Z,3.30
2023-03-06T10:33:54.351Z,3.30
2023-03-06T10:36:59.207Z,3.30
2023-03-06T10:40:21.262Z,3.30
2023-03-06T10:43:23.703Z,3.30
2023-03-06T10:46:37.433Z,3.30
2023-03-06T10:49:39.365Z,3.40
2023-03-06T10:52:41.196Z,3.40
2023-03-06T10:55:52.489Z,3.60
2023-03-06T10:59:17.744Z,3.70
2023-03-06T11:02:28.490Z,3.80
2023-03-06T11:05:30.359Z,3.90
2023-03-06T11:08:33.103Z,4.00
2023-03-06T11:11:37.878Z,4.10
2023-03-06T11:14:39.882Z,4.20
2023-03-06T11:18:04.624Z,4.30
2023-03-06T11:21:31.859Z,4.30
2023-03-06T11:24:42.293Z,4.30
2023-03-06T11:27:47.144Z,4.30
2023-03-06T11:30:57.041Z,4.30
2023-03-06T11:34:05.221Z,4.20
2023-03-06T11:37:13.513Z,4.20
2023-03-06T11:40:23.866Z,4.10
2023-03-06T11:43:32.884Z,4.10
2023-03-06T11:46:48.735Z,4.00
2023-03-06T11:50:21.837Z,4.10
2023-03-06T11:53:30.521Z,4.10
2023-03-06T11:56:58.449Z,4.00
2023-03-06T12:00:29.610Z,4.00
2023-03-06T12:03:56.888Z,4.00
2023-03-06T12:07:17.973Z,4.00
2023-03-06T12:10:36.968Z,4.10
2023-03-06T12:13:53.738Z,4.20
2023-03-06T12:17:02.709Z,4.20
2023-03-06T12:20:25.471Z,4.40
2023-03-06T12:23:52.066Z,4.50
2023-03-06T12:27:04.117Z,4.50
2023-03-06T12:30:32.674Z,4.60
2023-03-06T12:33:43.007Z,4.70
2023-03-06T12:37:08.634Z,4.70
2023-03-06T12:40:25.385Z,4.80
2023-03-06T12:43:52.312Z,4.80
2023-03-06T12:46:59.396Z,4.80
2023-03-06T12:50:05.225Z,4.90
2023-03-06T12:53:14.343Z,4.90
2023-03-06T12:56:18.257Z,5.00
2023-03-06T12:59:44.067Z,5.10
2023-03-06T13:03:07.181Z,5.10
2023-03-06T13:06:54.674Z,5.20
2023-03-06T13:10:06.624Z,5.20
2023-03-06T13:13:27.195Z,5.30
2023-03-06T13:16:33.512Z,5.30
2023-03-06T13:19:35.395Z,5.30
2023-03-06T13:22:37.131Z,5.30
2023-03-06T13:25:50.550Z,5.30
2023-03-06T13:28:54.850Z,5.30
2023-03-06T13:32:07.600Z,5.20
2023-03-06T13:35:32.264Z,5.20
2023-03-06T13:38:34.122Z,5.10
2023-03-06T13:41:37.862Z,5.10
2023-03-06T13:44:43.632Z,5.00
2023-03-06T13:48:15.532Z,5.00
2023-03-06T13:51:25.168Z,5.00
2023-03-06T13:54:52.262Z,5.00
2023-03-06T13:58:06.387Z,4.90
2023-03-06T14:01:27.135Z,4.90
2023-03-06T14:04:39.786Z,4.90
2023-03-06T14:07:47.065Z,4.80
2023-03-06T14:11:02.860Z,4.80
2023-03-06T14:14:05.458Z,4.80
2023-03-06T14:17:15.122Z,4.80
2023-03-06T14:20:19.821Z,4.80
2023-03-06T14:23:21.548Z,4.90
2023-03-06T14:26:28.940Z,4.90
2023-03-06T14:29:33.450Z,4.90
2023-03-06T14:32:37.851Z,4.90
2023-03-06T14:35:41.275Z,4.90
2023-03-06T14:38:47.674Z,5.00
2023-03-06T14:41:49.565Z,5.00
2023-03-06T14:45:18.934Z,5.00
2023-03-06T14:48:21.052Z,5.00
2023-03-06T14:51:25.462Z,5.00
2023-03-06T14:54:32.727Z,5.00
2023-03-06T14:57:34.518Z,5.00
2023-03-06T15:00:46.151Z,5.00
2023-03-06T15:03:50.699Z,5.00
2023-03-06T15:06:53.958Z,4.90
2023-03-06T15:09:56.393Z,4.90
2023-03-06T15:13:21.461Z,4.90
2023-03-06T15:16:29.899Z,4.80
2023-03-06T15:19:40.602Z,4.80
2023-03-06T15:22:43.278Z,4.70
2023-03-06T15:25:54.046Z,4.70
2023-03-06T15:29:11.215Z,4.60
2023-03-06T15:32:34.665Z,4.50
2023-03-06T15:35:38.237Z,4.40
2023-03-06T15:38:45.488Z,4.40
2023-03-06T15:41:47.920Z,4.40
2023-03-06T15:45:02.996Z,4.40
2023-03-06T15:48:16.979Z,4.30
2023-03-06T15:51:18.795Z,4.30
2023-03-06T15:54:20.754Z,4.20
2023-03-06T15:57:26.014Z,4.20
2023-03-06T16:00:38.535Z,4.20
2023-03-06T16:03:40.416Z,4.10
2023-03-06T16:06:43.202Z,4.10
2023-03-06T16:09:45.133Z,4.00
2023-03-06T16:13:03.369Z,4.00
2023-03-06T16:16:05.501Z,3.90
2023-03-06T16:19:25.283Z,3.90
2023-03-06T16:22:27.926Z,3.80
2023-03-06T16:25:29.768Z,3.80
2023-03-06T16:28:32.484Z,3.80
2023-03-06T16:31:34.487Z,3.80
2023-03-06T16:34:36.365Z,3.80
2023-03-06T16:37:42.024Z,3.70
2023-03-06T16:40:44.043Z,3.70
2023-03-06T16:43:47.662Z,3.70
2023-03-06T16:46:50.463Z,3.70
2023-03-06T16:49:57.352Z,3.60
2023-03-06T16:52:59.448Z,3.60
2023-03-06T16:56:01.420Z,3.60
2023-03-06T16:59:03.558Z,3.60
2023-03-06T17:02:06.403Z,3.60
2023-03-06T17:05:09.578Z,3.50
2023-03-06T17:08:11.442Z,3.50
2023-03-06T17:11:14.220Z,3.50
2023-03-06T17:14:16.121Z,3.50
2023-03-06T17:17:18.217Z,3.50
2023-03-06T17:20:20.786Z,3.40
2023-03-06T17:23:27.415Z,3.40
2023-03-06T17:26:29.558Z,3.40
2023-03-06T17:29:31.455Z,3.30
2023-03-06T17:32:33.420Z,3.30
2023-03-06T17:35:38.400Z,3.30
2023-03-06T17:38:41.196Z,3.30
2023-03-06T17:41:44.666Z,3.30
2023-03-06T17:44:48.042Z,3.30
2023-03-06T17:47:53.441Z,3.30
2023-03-06T17:50:56.340Z,3.30
2023-03-06T17:53:58.570Z,3.30
2023-03-06T17:57:03.361Z,3.30
2023-03-06T18:00:06.384Z,3.30
2023-03-06T18:03:09.655Z,3.30
2023-03-06T18:06:12.124Z,3.20
2023-03-06T18:09:14.192Z,3.30
2023-03-06T18:12:16.377Z,3.20
2023-03-06T18:15:18.737Z,3.20
2023-03-06T18:18:20.693Z,3.20
2023-03-06T18:21:24.589Z,3.20
2023-03-06T18:24:26.450Z,3.20
2023-03-06T18:27:28.286Z,3.20
2023-03-06T18:30:30.024Z,3.20
2023-03-06T18:33:34.440Z,3.20
2023-03-06T18:36:37.121Z,3.20
2023-03-06T18:39:39.103Z,3.20
2023-03-06T18:42:41.104Z,3.20
2023-03-06T18:45:44.588Z,3.20
2023-03-06T18:48:46.727Z,3.10
2023-03-06T18:51:50.532Z,3.10
2023-03-06T18:54:53.518Z,3.10
2023-03-06T18:57:55.462Z,3.10
2023-03-06T19:00:59.341Z,3.10
2023-03-06T19:04:02.879Z,3.10
2023-03-06T19:07:05.740Z,3.10
2023-03-06T19:10:07.980Z,3.10
2023-03-06T19:13:10.621Z,3.10
2023-03-06T19:16:21.424Z,3.10
2023-03-06T19:19:26.403Z,3.10
2023-03-06T19:22:28.161Z,3.00
2023-03-06T19:25:29.975Z,3.00
2023-03-06T19:28:32.547Z,3.00
2023-03-06T19:31:34.445Z,3.00
2023-03-06T19:34:36.269Z,3.00
2023-03-06T19:37:38.195Z,2.90
2023-03-06T19:40:40.078Z,2.90
2023-03-06T19:43:43.045Z,2.90
2023-03-06T19:46:44.791Z,2.90
2023-03-06T19:49:49.584Z,2.90
2023-03-06T19:52:52.452Z,2.80
2023-03-06T19:56:06.438Z,2.80
2023-03-06T19:59:08.334Z,2.80
2023-03-06T20:02:13.367Z,2.80
2023-03-06T20:05:15.568Z,2.80
2023-03-06T20:08:17.660Z,2.80
2023-03-06T20:11:24.512Z,2.80
2023-03-06T20:14:26.352Z,2.80
2023-03-06T20:17:28.211Z,2.70
2023-03-06T20:20:30.174Z,2.70
2023-03-06T20:23:33.801Z,2.70
2023-03-06T20:26:37.750Z,2.70
2023-03-06T20:29:44.718Z,2.70
2023-03-06T20:32:46.580Z,2.70
2023-03-06T20:35:48.447Z,2.70
2023-03-06T20:38:50.859Z,2.70
2023-03-06T20:41:52.835Z,2.70
2023-03-06T20:44:55.616Z,2.70
2023-03-06T20:47:57.446Z,2.60
2023-03-06T20:51:03.786Z,2.60
2023-03-06T20:54:07.553Z,2.60
2023-03-06T20:57:09.390Z,2.50
2023-03-06T21:00:11.868Z,2.50
2023-03-06T21:03:14.008Z,2.50
2023-03-06T21:06:16.304Z,2.50
2023-03-06T21:09:18.257Z,2.50
2023-03-06T21:12:20.110Z,2.50
2023-03-06T21:15:22.480Z,2.50
2023-03-06T21:18:24.298Z,2.40
2023-03-06T21:21:32.193Z,2.40
2023-03-06T21:24:34.033Z,2.40
2023-03-06T21:27:36.279Z,2.40
2023-03-06T21:30:38.102Z,2.30
2023-03-06T21:33:40.560Z,2.30
2023-03-06T21:36:43.498Z,2.30
2023-03-06T21:39:45.393Z,2.30
2023-03-06T21:42:47.259Z,2.30
2023-03-06T21:45:52.706Z,2.30
2023-03-06T21:48:56.421Z,2.30
2023-03-06T21:51:58.523Z,2.30
2023-03-06T21:55:00.479Z,2.30
2023-03-06T21:58:02.310Z,2.20
2023-03-06T22:01:09.873Z,2.30
2023-03-06T22:04:11.841Z,2.30
2023-03-06T22:07:13.687Z,2.30
2023-03-06T22:10:16.249Z,2.20
2023-03-06T22:13:18.098Z,2.30
2023-03-06T22:16:20.856Z,2.20
2023-03-06T22:19:23.638Z,2.30
2023-03-06T22:22:27.320Z,2.30
2023-03-06T22:25:31.238Z,2.20
2023-03-06T22:28:33.893Z,2.30
2023-03-06T22:31:35.678Z,2.20
2023-03-06T22:34:37.499Z,2.20
2023-03-06T22:37:39.569Z,2.20
2023-03-06T22:40:41.463Z,2.20
2023-03-06T22:43:43.720Z,2.20
2023-03-06T22:46:46.613Z,2.20
2023-03-06T22:49:48.494Z,2.20
2023-03-06T22:52:50.380Z,2.20
2023-03-06T22:55:52.272Z,2.20
2023-03-06T22:58:54.198Z,2.20
2023-03-06T23:01:56.028Z,2.20
2023-03-06T23:04:57.874Z,2.10
2023-03-06T23:07:59.726Z,2.10
2023-03-06T23:11:02.117Z,2.10
2023-03-06T23:14:06.387Z,2.10
2023-03-06T23:17:08.246Z,2.10
2023-03-06T23:20:11.830Z,2.10
2023-03-06T23:23:13.570Z,2.10
2023-03-06T23:26:16.355Z,2.00
2023-03-06T23:29:18.195Z,2.10
2023-03-06T23:32:19.974Z,2.00
2023-03-06T23:35:21.757Z,2.00
2023-03-06T23:38:23.545Z,2.00
2023-03-06T23:41:25.696Z,2.00
2023-03-06T23:44:28.613Z,1.90
2023-03-06T23:47:33.974Z,1.90
2023-03-06T23:50:39.130Z,1.90
2023-03-06T23:53:41.065Z,1.90
2023-03-06T23:56:42.897Z,1.90
2023-03-06T23:59:46.274Z,1.90
